Umatilla, Oregon
Current Conditions -  °F | °C
As of 4:53 AM on Wednesday 26 Nov 2014 (Local Time) from KHRI Reporting Station
Clear Clear  
Wind Chill: 57°   Ceiling: Unl
Heat Index: 57°   Visibility: 10mi
Dew Point: 42°   Wind: 14mph
Humidity: 57%   Direction: 220°SW
Pressure: 30.18"   Gusts: NA
Location:  45.92°N, 119.34°W
Report Text: KHRI 261253Z AUTO 22012KT 10SM CLR 14/06 A3018 RMK AO2 SLP221 T01390056
Loading
Personal Weather Stations






























Interactive Weather Map New forecast layout! Learn more

10-Day Weather Forecast

Advertisements
Track Severe Weather on mobile